createdAt,value
2018-03-22T00:02:22.128Z,5.07
2018-03-22T00:04:49.729Z,6.47
2018-03-22T00:07:17.339Z,5.77
2018-03-22T00:09:44.949Z,7.40
2018-03-22T00:12:12.552Z,5.27
2018-03-22T00:14:40.934Z,4.57
2018-03-22T00:17:08.543Z,4.43
2018-03-22T00:19:36.140Z,5.27
2018-03-22T00:22:03.767Z,4.17
2018-03-22T00:24:31.362Z,3.80
2018-03-22T00:26:58.965Z,6.80
2018-03-22T00:29:26.576Z,4.60
2018-03-22T00:31:54.180Z,5.60
2018-03-22T00:34:21.776Z,4.37
2018-03-22T00:36:49.405Z,8.10
2018-03-22T00:39:17.063Z,7.97
2018-03-22T00:41:44.643Z,6.17
2018-03-22T00:44:12.268Z,7.37
2018-03-22T00:46:40.642Z,7.70
2018-03-22T00:49:09.000Z,5.07
2018-03-22T00:51:36.631Z,5.37
2018-03-22T00:54:04.228Z,5.07
2018-03-22T00:56:31.816Z,4.90
2018-03-22T00:58:59.454Z,7.17
2018-03-22T01:01:27.822Z,4.97
2018-03-22T01:03:55.415Z,6.40
2018-03-22T01:06:23.020Z,6.37
2018-03-22T01:08:50.624Z,9.97
2018-03-22T01:11:18.219Z,8.10
2018-03-22T01:13:45.830Z,8.10
2018-03-22T01:16:13.428Z,8.27
2018-03-22T01:18:41.039Z,12.43
2018-03-22T01:21:08.660Z,11.03
2018-03-22T01:23:36.255Z,10.07
2018-03-22T01:26:03.861Z,10.57
2018-03-22T01:28:31.473Z,16.87
2018-03-22T01:30:59.079Z,17.50
2018-03-22T01:33:26.679Z,17.73
2018-03-22T01:35:54.291Z,14.77
2018-03-22T01:38:22.664Z,10.43
2018-03-22T01:40:51.059Z,12.97
2018-03-22T01:43:18.677Z,10.40
2018-03-22T01:45:46.275Z,9.17
2018-03-22T01:48:13.873Z,9.67
2018-03-22T01:50:41.484Z,9.40
2018-03-22T01:53:13.715Z,8.93
2018-03-22T01:55:41.339Z,7.67
2018-03-22T01:58:08.923Z,7.03
2018-03-22T02:00:36.512Z,9.03
2018-03-22T02:03:04.112Z,7.97
2018-03-22T02:05:31.703Z,8.50
2018-03-22T02:07:59.320Z,8.67
2018-03-22T02:10:26.939Z,6.37
2018-03-22T02:12:54.543Z,10.23
2018-03-22T02:15:22.134Z,6.67
2018-03-22T02:17:49.744Z,6.43
2018-03-22T02:20:18.119Z,8.23
2018-03-22T02:22:45.726Z,10.77
2018-03-22T02:25:13.334Z,9.60
2018-03-22T02:27:40.938Z,8.30
2018-03-22T02:30:08.532Z,6.57
2018-03-22T02:32:36.172Z,6.00
2018-03-22T02:35:03.764Z,9.10
2018-03-22T02:37:31.364Z,10.03
2018-03-22T02:39:58.970Z,6.40
2018-03-22T02:42:26.577Z,14.63
2018-03-22T02:44:54.947Z,13.40
2018-03-22T02:47:22.558Z,11.87
2018-03-22T02:49:50.171Z,8.30
2018-03-22T02:52:17.777Z,8.00
2018-03-22T02:54:45.404Z,9.50
2018-03-22T02:57:13.000Z,10.37
2018-03-22T02:59:40.592Z,9.50
2018-03-22T03:02:08.195Z,9.33
2018-03-22T03:04:35.803Z,13.47
2018-03-22T03:07:03.412Z,10.60
2018-03-22T03:09:31.051Z,8.53
2018-03-22T03:11:58.658Z,10.40
2018-03-22T03:14:26.252Z,12.07
2018-03-22T03:16:53.868Z,9.03
2018-03-22T03:19:21.519Z,10.23
2018-03-22T03:21:49.120Z,16.73
2018-03-22T03:24:16.755Z,10.53
2018-03-22T03:26:44.367Z,10.90
2018-03-22T03:29:12.736Z,10.97
2018-03-22T03:31:41.143Z,22.47
2018-03-22T03:34:08.749Z,29.83
2018-03-22T03:36:36.344Z,10.53
2018-03-22T03:39:03.967Z,20.10
2018-03-22T03:41:31.595Z,15.47
2018-03-22T03:43:59.191Z,11.47
2018-03-22T03:46:26.808Z,12.17
2018-03-22T03:48:54.418Z,21.03
2018-03-22T03:51:22.019Z,11.23
2018-03-22T03:53:50.396Z,22.57
2018-03-22T03:56:18.004Z,17.77
2018-03-22T03:58:45.604Z,13.53
2018-03-22T04:01:13.247Z,10.43
2018-03-22T04:03:40.848Z,21.80
2018-03-22T04:06:08.468Z,13.03
2018-03-22T04:08:36.076Z,21.87
2018-03-22T04:11:03.688Z,9.43
2018-03-22T04:13:31.288Z,21.33
2018-03-22T04:15:58.917Z,12.17
2018-03-22T04:18:27.294Z,13.73
2018-03-22T04:20:54.888Z,11.83
2018-03-22T04:23:22.500Z,10.90
2018-03-22T04:25:50.103Z,24.10
2018-03-22T04:28:17.711Z,11.27
2018-03-22T04:30:45.332Z,10.87
2018-03-22T04:33:12.936Z,21.47
2018-03-22T04:35:40.536Z,14.50
2018-03-22T04:38:08.913Z,18.87
2018-03-22T04:40:37.272Z,28.17
2018-03-22T04:43:04.871Z,26.77
2018-03-22T04:45:33.288Z,23.07
2018-03-22T04:48:00.888Z,31.23
2018-03-22T04:50:29.260Z,35.90
2018-03-22T04:52:56.937Z,13.87
2018-03-22T04:55:24.546Z,14.20
2018-03-22T04:57:52.913Z,22.70
2018-03-22T05:00:20.535Z,35.47
2018-03-22T05:02:48.147Z,36.43
2018-03-22T05:05:15.747Z,18.17
2018-03-22T05:07:44.120Z,12.67
2018-03-22T05:10:12.569Z,22.83
2018-03-22T05:12:40.157Z,13.27
2018-03-22T05:15:07.766Z,13.03
2018-03-22T05:17:35.429Z,18.47
2018-03-22T05:20:03.028Z,15.93
2018-03-22T05:22:31.415Z,18.80
2018-03-22T05:24:59.807Z,32.03
2018-03-22T05:27:27.415Z,33.13
2018-03-22T05:29:55.032Z,35.60
2018-03-22T05:32:22.628Z,47.07
2018-03-22T05:34:51.011Z,32.07
2018-03-22T05:37:18.643Z,27.17
2018-03-22T05:39:46.240Z,23.77
2018-03-22T05:42:13.848Z,26.40
2018-03-22T05:44:42.275Z,54.57
2018-03-22T05:47:10.746Z,24.03
2018-03-22T05:49:38.370Z,63.43
2018-03-22T05:52:05.981Z,22.57
2018-03-22T05:54:33.587Z,26.43
2018-03-22T05:57:01.249Z,26.40
2018-03-22T05:59:29.627Z,48.37
2018-03-22T06:01:57.240Z,115.57
2018-03-22T06:04:24.904Z,87.77
2018-03-22T06:06:52.528Z,93.37
2018-03-22T06:09:20.144Z,71.53
2018-03-22T06:11:47.741Z,28.53
2018-03-22T06:14:15.464Z,21.50
2018-03-22T06:16:43.089Z,88.50
2018-03-22T06:19:10.688Z,33.47
2018-03-22T06:21:38.320Z,29.50
2018-03-22T06:24:05.944Z,37.70
2018-03-22T06:26:33.548Z,34.20
2018-03-22T06:29:01.180Z,37.50
2018-03-22T06:31:28.784Z,28.07
2018-03-22T06:33:56.399Z,104.50
2018-03-22T06:36:24.011Z,84.07
2018-03-22T06:38:51.636Z,213.50
2018-03-22T06:41:19.244Z,45.37
2018-03-22T06:43:46.863Z,234.43
2018-03-22T06:46:16.597Z,194.77
2018-03-22T06:48:44.242Z,65.53
2018-03-22T06:51:12.335Z,80.73
2018-03-22T06:53:39.939Z,105.30
2018-03-22T06:56:07.712Z,302.83
2018-03-22T06:58:35.336Z,317.53
2018-03-22T07:01:03.711Z,196.40
2018-03-22T07:03:32.083Z,288.43
2018-03-22T07:06:00.467Z,392.50
2018-03-22T07:08:28.877Z,279.97
2018-03-22T07:10:56.508Z,332.37
2018-03-22T07:13:24.146Z,231.23
2018-03-22T07:15:51.749Z,64.47
2018-03-22T07:18:19.348Z,35.73
2018-03-22T07:20:46.969Z,39.90
2018-03-22T07:23:14.576Z,48.83
2018-03-22T07:25:42.208Z,51.63
2018-03-22T07:28:09.828Z,55.97
2018-03-22T07:30:37.428Z,59.73
2018-03-22T07:33:05.023Z,303.87
2018-03-22T07:35:32.705Z,220.00
2018-03-22T07:38:01.084Z,192.57
2018-03-22T07:40:29.462Z,68.10
2018-03-22T07:43:03.392Z,179.97
2018-03-22T07:45:30.998Z,187.67
2018-03-22T07:47:58.627Z,85.87
2018-03-22T07:50:26.240Z,87.80
2018-03-22T07:52:53.851Z,76.20
2018-03-22T07:55:21.448Z,42.47
2018-03-22T07:57:49.060Z,47.37
2018-03-22T08:00:16.660Z,25.47
2018-03-22T08:02:45.028Z,29.10
2018-03-22T08:05:12.648Z,10.70
2018-03-22T08:07:41.004Z,8.73
2018-03-22T08:10:08.597Z,5.40
2018-03-22T08:12:36.211Z,5.90
2018-03-22T08:15:03.815Z,5.73
2018-03-22T08:17:31.408Z,7.33
2018-03-22T08:19:59.039Z,6.60
2018-03-22T08:22:26.627Z,7.03
2018-03-22T08:24:54.228Z,8.53
2018-03-22T08:27:21.831Z,7.90
2018-03-22T08:29:49.431Z,8.27
2018-03-22T08:32:17.050Z,5.77
2018-03-22T08:34:44.664Z,11.07
2018-03-22T08:37:12.263Z,10.93
2018-03-22T08:39:39.864Z,7.53
2018-03-22T08:42:07.488Z,7.80
2018-03-22T08:44:35.092Z,10.57
2018-03-22T08:47:02.692Z,6.67
2018-03-22T08:49:30.295Z,8.90
2018-03-22T08:51:57.904Z,15.27
2018-03-22T08:54:25.504Z,14.60
2018-03-22T08:56:53.113Z,11.70
2018-03-22T08:59:20.724Z,6.10
2018-03-22T09:01:48.333Z,3.40
2018-03-22T09:04:15.940Z,3.23
2018-03-22T09:06:43.565Z,3.90
2018-03-22T09:09:11.161Z,2.60
2018-03-22T09:11:38.803Z,2.67
2018-03-22T09:14:06.412Z,4.40
2018-03-22T09:16:34.007Z,4.10
2018-03-22T09:19:01.627Z,4.50
2018-03-22T09:21:29.232Z,4.87
2018-03-22T09:23:56.822Z,4.53
2018-03-22T09:26:24.461Z,4.30
2018-03-22T09:28:52.061Z,3.60
2018-03-22T09:31:19.652Z,4.37
2018-03-22T09:33:47.263Z,4.47
2018-03-22T09:36:14.865Z,3.77
2018-03-22T09:38:42.460Z,3.40
2018-03-22T09:41:10.074Z,3.97
2018-03-22T09:43:37.697Z,4.10
2018-03-22T09:46:05.291Z,4.53
2018-03-22T09:48:32.900Z,3.67
2018-03-22T09:51:00.553Z,2.77
2018-03-22T09:53:28.194Z,3.07
2018-03-22T09:55:55.812Z,2.70
2018-03-22T09:58:23.400Z,2.63
2018-03-22T10:00:50.992Z,2.70
2018-03-22T10:03:18.601Z,2.40
2018-03-22T10:05:46.199Z,3.03
2018-03-22T10:08:13.823Z,3.23
2018-03-22T10:10:41.455Z,2.73
2018-03-22T10:13:09.068Z,2.57
2018-03-22T10:15:36.660Z,2.80
2018-03-22T10:18:04.260Z,2.43
2018-03-22T10:20:31.855Z,3.00
2018-03-22T10:22:59.455Z,2.37
2018-03-22T10:25:27.080Z,4.20
2018-03-22T10:27:54.688Z,4.10
2018-03-22T10:30:22.284Z,4.40
2018-03-22T10:32:49.883Z,5.17
2018-03-22T10:35:17.534Z,6.13
2018-03-22T10:37:45.132Z,5.43
2018-03-22T10:40:12.735Z,4.37
2018-03-22T10:42:40.365Z,2.57
2018-03-22T10:45:07.969Z,4.20
2018-03-22T10:47:35.604Z,3.97
2018-03-22T10:50:03.195Z,4.10
2018-03-22T10:52:30.804Z,4.43
2018-03-22T10:54:58.487Z,4.27
2018-03-22T10:57:26.083Z,5.10
2018-03-22T10:59:54.441Z,3.63
2018-03-22T11:02:28.334Z,4.00
2018-03-22T11:04:56.055Z,3.80
2018-03-22T11:07:23.664Z,4.33
2018-03-22T11:09:51.280Z,5.27
2018-03-22T11:12:18.931Z,4.23
2018-03-22T11:14:46.553Z,3.40
2018-03-22T11:17:14.168Z,4.23
2018-03-22T11:19:41.770Z,3.27
2018-03-22T11:22:09.371Z,2.33
2018-03-22T11:24:36.972Z,2.90
2018-03-22T11:27:04.608Z,3.10
2018-03-22T11:29:32.208Z,3.10
2018-03-22T11:31:59.920Z,2.93
2018-03-22T11:34:27.522Z,2.90
2018-03-22T11:36:55.132Z,2.33
2018-03-22T11:39:22.816Z,2.53
2018-03-22T11:41:50.424Z,2.00
2018-03-22T11:44:18.028Z,2.90
2018-03-22T11:46:45.632Z,3.20
2018-03-22T11:49:13.252Z,2.90
2018-03-22T11:51:40.848Z,2.53
2018-03-22T11:54:08.551Z,3.40
2018-03-22T11:56:38.083Z,2.40
2018-03-22T11:59:05.733Z,3.00
2018-03-22T12:01:33.321Z,3.27
2018-03-22T12:04:00.947Z,2.50
2018-03-22T12:06:28.552Z,3.33
2018-03-22T12:08:56.180Z,2.30
2018-03-22T12:11:23.768Z,2.13
2018-03-22T12:13:51.378Z,2.70
2018-03-22T12:16:18.987Z,2.10
2018-03-22T12:18:47.348Z,2.73
2018-03-22T12:21:14.944Z,2.40
2018-03-22T12:23:42.549Z,2.80
2018-03-22T12:26:10.154Z,2.87
2018-03-22T12:28:37.756Z,2.60
2018-03-22T12:31:05.369Z,2.27
2018-03-22T12:33:32.967Z,3.07
2018-03-22T12:36:00.566Z,2.13
2018-03-22T12:38:28.190Z,2.83
2018-03-22T12:40:55.804Z,2.80
2018-03-22T12:43:23.481Z,2.97
2018-03-22T12:45:51.040Z,3.33
2018-03-22T12:48:18.645Z,2.47
2018-03-22T12:50:46.244Z,3.37
2018-03-22T12:53:13.852Z,3.50
2018-03-22T12:55:41.444Z,2.27
2018-03-22T12:58:09.040Z,2.70
2018-03-22T13:00:36.644Z,2.30
2018-03-22T13:03:04.244Z,2.83
2018-03-22T13:05:31.840Z,2.87
2018-03-22T13:08:00.214Z,2.97
2018-03-22T13:10:28.578Z,2.10
2018-03-22T13:12:56.944Z,2.93
2018-03-22T13:15:24.557Z,2.30
2018-03-22T13:17:52.148Z,2.30
2018-03-22T13:20:19.754Z,2.53
2018-03-22T13:22:48.143Z,2.17
2018-03-22T13:25:15.756Z,2.67
2018-03-22T13:27:43.372Z,2.40
2018-03-22T13:30:10.980Z,2.70
2018-03-22T13:32:38.585Z,4.07
2018-03-22T13:35:06.184Z,5.80
2018-03-22T13:37:33.799Z,7.40
2018-03-22T13:40:01.394Z,6.30
2018-03-22T13:42:28.995Z,6.30
2018-03-22T13:44:56.599Z,7.13
2018-03-22T13:47:24.246Z,7.30
2018-03-22T13:49:51.827Z,8.37
2018-03-22T13:52:19.460Z,6.40
2018-03-22T13:54:47.824Z,5.70
2018-03-22T13:57:15.452Z,5.40
2018-03-22T13:59:43.057Z,5.27
2018-03-22T14:02:11.415Z,5.63
2018-03-22T14:04:39.007Z,5.67
2018-03-22T14:07:06.632Z,8.93
2018-03-22T14:09:34.256Z,7.77
2018-03-22T14:12:01.854Z,6.30
2018-03-22T14:14:29.504Z,5.50
2018-03-22T14:16:57.100Z,6.17
2018-03-22T14:19:24.697Z,5.50
2018-03-22T14:21:52.323Z,5.07
2018-03-22T14:24:19.944Z,4.90
2018-03-22T14:26:47.548Z,5.37
2018-03-22T14:29:15.164Z,4.60
2018-03-22T14:31:42.763Z,5.90
2018-03-22T14:34:10.363Z,5.93
2018-03-22T14:36:37.967Z,5.37
2018-03-22T14:39:05.577Z,5.47
2018-03-22T14:41:33.175Z,8.33
2018-03-22T14:44:00.778Z,8.73
2018-03-22T14:46:28.372Z,9.23
2018-03-22T14:48:55.963Z,4.77
2018-03-22T14:51:24.356Z,7.47
2018-03-22T14:53:51.956Z,7.27
2018-03-22T14:56:19.564Z,9.73
2018-03-22T14:58:47.184Z,6.93
2018-03-22T15:01:14.788Z,6.13
2018-03-22T15:03:42.394Z,8.00
2018-03-22T15:06:09.997Z,8.33
2018-03-22T15:08:37.608Z,8.17
2018-03-22T15:11:05.240Z,7.27
2018-03-22T15:13:32.858Z,6.90
2018-03-22T15:16:00.488Z,8.70
2018-03-22T15:18:28.104Z,7.93
2018-03-22T15:20:55.723Z,11.10
2018-03-22T15:23:23.312Z,7.80
2018-03-22T15:25:50.981Z,12.83
2018-03-22T15:28:18.633Z,7.83
2018-03-22T15:30:46.253Z,7.93
2018-03-22T15:33:13.856Z,10.57
2018-03-22T15:35:41.473Z,11.20
2018-03-22T15:38:09.140Z,9.10
2018-03-22T15:40:36.741Z,11.57
2018-03-22T15:43:04.391Z,12.43
2018-03-22T15:45:31.992Z,11.57
2018-03-22T15:47:59.593Z,10.80
2018-03-22T15:50:27.205Z,12.50
2018-03-22T15:52:55.574Z,11.30
2018-03-22T15:55:23.209Z,16.13
2018-03-22T15:57:50.825Z,17.47
2018-03-22T16:00:18.484Z,8.13
2018-03-22T16:02:46.091Z,13.00
2018-03-22T16:05:13.718Z,12.27
2018-03-22T16:07:41.351Z,9.77
2018-03-22T16:12:59.323Z,8.57
2018-03-22T16:15:27.855Z,13.67
2018-03-22T16:17:55.519Z,12.70
2018-03-22T16:20:23.129Z,9.20
2018-03-22T16:22:50.734Z,9.23
2018-03-22T16:25:18.340Z,9.20
2018-03-22T16:27:46.022Z,10.37
2018-03-22T16:30:13.688Z,9.60
2018-03-22T16:32:41.288Z,11.70
2018-03-22T16:35:08.906Z,13.50
2018-03-22T16:37:36.586Z,15.90
2018-03-22T16:40:04.232Z,15.40
2018-03-22T16:42:31.878Z,12.83
2018-03-22T16:44:59.616Z,12.37
2018-03-22T16:47:28.019Z,14.73
2018-03-22T16:49:55.698Z,10.03
2018-03-22T16:52:23.349Z,9.63
2018-03-22T16:54:51.019Z,9.20
2018-03-22T16:57:19.410Z,100.17
2018-03-22T16:59:47.968Z,12.47
2018-03-22T17:02:15.572Z,14.10
2018-03-22T17:04:43.189Z,15.83
2018-03-22T17:07:10.783Z,17.97
2018-03-22T17:09:38.388Z,13.07
2018-03-22T17:12:05.996Z,11.70
2018-03-22T17:14:33.594Z,11.23
2018-03-22T17:17:01.193Z,15.20
2018-03-22T17:19:28.875Z,12.90
2018-03-22T17:21:56.644Z,11.80
2018-03-22T17:24:24.279Z,13.03
2018-03-22T17:26:51.978Z,14.33
2018-03-22T17:29:19.636Z,10.97
2018-03-22T17:31:47.268Z,9.10
2018-03-22T17:34:14.964Z,8.33
2018-03-22T17:36:42.580Z,10.40
2018-03-22T17:39:10.248Z,8.53
2018-03-22T17:41:37.857Z,10.07
2018-03-22T17:44:05.452Z,10.97
2018-03-22T17:46:33.056Z,12.70
2018-03-22T17:49:00.744Z,20.83
2018-03-22T17:51:28.396Z,10.77
2018-03-22T17:53:56.000Z,17.63
2018-03-22T17:56:23.686Z,26.37
2018-03-22T17:58:51.296Z,13.90
2018-03-22T18:01:18.921Z,13.20
2018-03-22T18:03:46.559Z,15.37
2018-03-22T18:06:14.160Z,14.57
2018-03-22T18:08:41.777Z,12.93
2018-03-22T18:11:09.383Z,13.93
2018-03-22T18:13:37.030Z,9.80
2018-03-22T18:16:04.663Z,5.93
2018-03-22T18:18:32.292Z,12.20
2018-03-22T18:21:00.659Z,22.07
2018-03-22T18:23:29.093Z,8.07
2018-03-22T18:25:56.702Z,18.83
2018-03-22T18:28:25.071Z,5.83
2018-03-22T18:30:53.431Z,17.30
2018-03-22T18:33:21.072Z,20.20
2018-03-22T18:35:48.724Z,29.13
2018-03-22T18:38:16.327Z,13.17
2018-03-22T18:40:43.943Z,15.63
2018-03-22T18:43:11.548Z,11.13
2018-03-22T18:45:39.830Z,15.10
2018-03-22T18:48:08.244Z,21.30
2018-03-22T18:50:35.854Z,21.57
2018-03-22T18:53:03.464Z,19.60
2018-03-22T18:55:31.097Z,8.83
2018-03-22T18:57:59.494Z,10.80
2018-03-22T19:00:27.100Z,17.00
2018-03-22T19:02:54.747Z,17.57
2018-03-22T19:05:22.353Z,10.77
2018-03-22T19:07:49.972Z,12.20
2018-03-22T19:10:17.593Z,20.23
2018-03-22T19:12:45.192Z,10.17
2018-03-22T19:15:12.792Z,6.97
2018-03-22T19:17:41.185Z,8.07
2018-03-22T19:20:08.787Z,17.60
2018-03-22T19:22:36.388Z,7.53
2018-03-22T19:25:05.056Z,9.97
2018-03-22T19:27:33.456Z,9.10
2018-03-22T19:30:01.829Z,8.53
2018-03-22T19:32:29.447Z,8.03
2018-03-22T19:34:57.039Z,4.47
2018-03-22T19:37:24.661Z,8.57
2018-03-22T19:39:52.269Z,7.20
2018-03-22T19:42:20.648Z,6.80
2018-03-22T19:44:48.287Z,8.73
2018-03-22T19:47:15.928Z,8.47
2018-03-22T19:49:43.540Z,31.90
2018-03-22T19:52:11.908Z,13.67
2018-03-22T19:54:40.303Z,71.57
2018-03-22T19:57:08.672Z,22.97
2018-03-22T19:59:37.035Z,11.17
2018-03-22T20:02:04.655Z,26.37
2018-03-22T20:04:32.258Z,32.40
2018-03-22T20:06:59.859Z,18.57
2018-03-22T20:09:27.488Z,26.70
2018-03-22T20:11:56.236Z,7.93
2018-03-22T20:14:23.841Z,5.80
2018-03-22T20:16:52.219Z,4.20
2018-03-22T20:19:19.808Z,5.37
2018-03-22T20:21:47.440Z,6.67
2018-03-22T20:24:15.819Z,8.17
2018-03-22T20:26:43.446Z,5.83
2018-03-22T20:29:11.168Z,5.37
2018-03-22T20:31:38.848Z,29.93
2018-03-22T20:34:06.533Z,18.10
2018-03-22T20:36:34.162Z,14.97
2018-03-22T20:39:01.779Z,11.90
2018-03-22T20:41:29.395Z,99.37
2018-03-22T20:43:57.002Z,22.50
2018-03-22T20:46:25.439Z,22.27
2018-03-22T20:48:53.045Z,11.17
2018-03-22T20:51:21.416Z,13.13
2018-03-22T20:53:49.052Z,22.73
2018-03-22T20:56:16.707Z,20.87
2018-03-22T20:58:44.320Z,9.07
2018-03-22T21:01:11.931Z,8.97
2018-03-22T21:03:39.540Z,8.77
2018-03-22T21:06:07.152Z,17.73
2018-03-22T21:08:34.859Z,6.63
2018-03-22T21:11:02.460Z,7.63
2018-03-22T21:13:30.131Z,15.73
2018-03-22T21:15:57.766Z,34.07
2018-03-22T21:18:25.434Z,30.80
2018-03-22T21:20:53.863Z,21.30
2018-03-22T21:23:22.284Z,14.03
2018-03-22T21:25:49.922Z,6.67
2018-03-22T21:28:17.524Z,4.87
2018-03-22T21:30:45.145Z,9.00
2018-03-22T21:33:12.761Z,11.40
2018-03-22T21:35:40.372Z,4.43
2018-03-22T21:38:07.993Z,4.37
2018-03-22T21:40:35.655Z,5.97
2018-03-22T21:43:03.269Z,12.27
2018-03-22T21:45:30.927Z,30.80
2018-03-22T21:47:58.584Z,15.37
2018-03-22T21:50:26.207Z,13.10
2018-03-22T21:52:54.588Z,41.80
2018-03-22T21:55:22.200Z,9.53
2018-03-22T21:57:49.802Z,28.27
2018-03-22T22:00:17.420Z,44.40
2018-03-22T22:02:45.024Z,48.60
2018-03-22T22:05:13.399Z,13.20
2018-03-22T22:07:41.020Z,54.63
2018-03-22T22:10:08.643Z,18.97
2018-03-22T22:12:36.280Z,7.00
2018-03-22T22:15:03.933Z,5.63
2018-03-22T22:17:31.535Z,17.97
2018-03-22T22:19:59.185Z,6.50
2018-03-22T22:22:26.798Z,4.73
2018-03-22T22:24:54.402Z,9.13
2018-03-22T22:27:22.006Z,7.57
2018-03-22T22:29:49.617Z,14.67
2018-03-22T22:32:17.220Z,26.00
2018-03-22T22:34:44.819Z,14.00
2018-03-22T22:37:12.461Z,29.17
2018-03-22T22:39:40.064Z,21.53
2018-03-22T22:42:07.664Z,30.57
2018-03-22T22:44:35.278Z,15.07
2018-03-22T22:47:02.903Z,7.77
2018-03-22T22:49:30.519Z,19.70
2018-03-22T22:51:58.149Z,42.60
2018-03-22T22:54:25.746Z,5.03
2018-03-22T22:56:53.349Z,7.20
2018-03-22T22:59:20.959Z,8.20
2018-03-22T23:01:48.560Z,18.43
2018-03-22T23:04:16.167Z,4.07
2018-03-22T23:06:43.781Z,4.33
2018-03-22T23:09:11.379Z,3.37
2018-03-22T23:11:38.975Z,3.30
2018-03-22T23:14:06.596Z,4.97
2018-03-22T23:16:34.231Z,4.97
2018-03-22T23:19:01.844Z,10.57
2018-03-22T23:21:29.457Z,5.83
2018-03-22T23:23:57.064Z,5.87
2018-03-22T23:26:24.659Z,4.10
2018-03-22T23:28:52.266Z,4.10
2018-03-22T23:31:20.632Z,5.93
2018-03-22T23:33:48.247Z,5.80
2018-03-22T23:36:15.859Z,3.87
2018-03-22T23:38:43.469Z,4.23
2018-03-22T23:41:11.095Z,19.40
2018-03-22T23:43:38.700Z,4.53
2018-03-22T23:46:06.295Z,5.97
2018-03-22T23:48:33.888Z,6.10
2018-03-22T23:51:01.526Z,4.17
2018-03-22T23:53:29.129Z,11.60
2018-03-22T23:55:56.729Z,7.73
2018-03-22T23:58:24.349Z,17.77
